createdAt,value
2022-08-25T00:00:14.991Z,22.39
2022-08-25T00:02:55.544Z,22.34
2022-08-25T00:05:27.149Z,22.24
2022-08-25T00:07:58.506Z,22.34
2022-08-25T00:10:26.183Z,22.30
2022-08-25T00:12:54.123Z,22.31
2022-08-25T00:15:22.446Z,22.28
2022-08-25T00:17:50.488Z,22.28
2022-08-25T00:20:18.552Z,22.27
2022-08-25T00:22:46.298Z,22.32
2022-08-25T00:25:15.245Z,22.22
2022-08-25T00:27:43.633Z,22.21
2022-08-25T00:30:16.022Z,22.11
2022-08-25T00:32:48.918Z,22.13
2022-08-25T00:35:24.731Z,22.05
2022-08-25T00:37:52.395Z,22.08
2022-08-25T00:40:22.354Z,22.13
2022-08-25T00:42:50.115Z,22.05
2022-08-25T00:45:18.763Z,21.97
2022-08-25T00:47:46.471Z,21.95
2022-08-25T00:50:14.148Z,21.97
2022-08-25T00:52:44.691Z,21.81
2022-08-25T00:55:15.917Z,21.89
2022-08-25T00:57:48.234Z,21.79
2022-08-25T01:00:22.655Z,21.76
2022-08-25T01:02:50.758Z,21.79
2022-08-25T01:05:19.296Z,21.50
2022-08-25T01:07:47.390Z,21.53
2022-08-25T01:10:15.198Z,21.64
2022-08-25T01:12:43.010Z,21.47
2022-08-25T01:15:13.534Z,21.47
2022-08-25T01:17:47.480Z,21.37
2022-08-25T01:20:16.133Z,21.47
2022-08-25T01:22:45.194Z,21.43
2022-08-25T01:25:28.215Z,21.39
2022-08-25T01:27:55.957Z,21.49
2022-08-25T01:30:23.864Z,21.41
2022-08-25T01:32:51.554Z,21.44
2022-08-25T01:35:19.289Z,21.55
2022-08-25T01:37:48.623Z,21.35
2022-08-25T01:40:16.394Z,21.23
2022-08-25T01:42:54.535Z,21.19
2022-08-25T01:45:22.280Z,21.01
2022-08-25T01:47:50.230Z,20.98
2022-08-25T01:50:18.043Z,21.00
2022-08-25T01:52:53.117Z,20.67
2022-08-25T01:55:20.901Z,20.62
2022-08-25T01:57:48.685Z,20.61
2022-08-25T02:00:17.494Z,20.53
2022-08-25T02:02:45.419Z,20.49
2022-08-25T02:05:18.435Z,20.47
2022-08-25T02:07:50.510Z,20.60
2022-08-25T02:10:18.213Z,20.43
2022-08-25T02:12:45.938Z,20.43
2022-08-25T02:15:14.547Z,20.43
2022-08-25T02:17:42.139Z,20.36
2022-08-25T02:20:10.505Z,20.39
2022-08-25T02:22:38.234Z,20.38
2022-08-25T02:25:10.511Z,20.30
2022-08-25T02:27:38.309Z,20.40
2022-08-25T02:30:06.868Z,20.33
2022-08-25T02:32:34.815Z,20.28
2022-08-25T02:35:02.603Z,20.33
2022-08-25T02:37:30.258Z,20.22
2022-08-25T02:39:58.184Z,20.21
2022-08-25T02:42:27.329Z,20.30
2022-08-25T02:44:55.502Z,20.39
2022-08-25T02:47:26.951Z,20.25
2022-08-25T02:49:55.580Z,20.42
2022-08-25T02:52:23.281Z,20.39
2022-08-25T02:54:51.202Z,20.47
2022-08-25T02:57:18.845Z,20.38
2022-08-25T02:59:48.450Z,20.38
2022-08-25T03:02:16.646Z,20.26
2022-08-25T03:04:44.532Z,20.24
2022-08-25T03:07:12.650Z,20.22
2022-08-25T03:09:40.485Z,20.19
2022-08-25T03:12:09.509Z,20.22
2022-08-25T03:14:37.231Z,20.21
2022-08-25T03:17:08.625Z,20.20
2022-08-25T03:19:36.961Z,20.11
2022-08-25T03:22:04.696Z,20.12
2022-08-25T03:24:32.514Z,20.06
2022-08-25T03:26:59.275Z,20.14
2022-08-25T03:29:32.535Z,20.16
2022-08-25T03:32:01.117Z,20.15
2022-08-25T03:34:31.049Z,20.15
2022-08-25T03:36:59.615Z,20.08
2022-08-25T03:39:27.604Z,20.23
2022-08-25T03:41:55.711Z,20.21
2022-08-25T03:44:24.066Z,20.31
2022-08-25T03:46:53.206Z,20.26
2022-08-25T03:49:23.644Z,20.32
2022-08-25T03:51:54.690Z,20.15
2022-08-25T03:54:25.360Z,20.21
2022-08-25T03:56:53.234Z,20.09
2022-08-25T03:59:21.027Z,20.17
2022-08-25T04:01:54.465Z,20.25
2022-08-25T04:04:23.009Z,20.10
2022-08-25T04:06:52.851Z,20.06
2022-08-25T04:09:20.544Z,20.01
2022-08-25T04:11:49.229Z,19.90
2022-08-25T04:14:22.036Z,19.96
2022-08-25T04:16:49.755Z,19.91
2022-08-25T04:19:17.498Z,19.93
2022-08-25T04:21:45.394Z,19.95
2022-08-25T04:24:15.100Z,19.91
2022-08-25T04:26:45.015Z,19.86
2022-08-25T04:29:14.402Z,19.81
2022-08-25T04:31:46.821Z,19.73
2022-08-25T04:34:29.531Z,19.66
2022-08-25T04:36:57.787Z,19.64
2022-08-25T04:39:26.782Z,19.66
2022-08-25T04:41:54.399Z,19.73
2022-08-25T04:44:22.136Z,19.72
2022-08-25T04:46:50.202Z,19.69
2022-08-25T04:49:17.858Z,19.74
2022-08-25T04:51:45.909Z,19.65
2022-08-25T04:54:16.854Z,19.60
2022-08-25T04:56:46.358Z,19.63
2022-08-25T04:59:15.767Z,19.63
2022-08-25T05:01:45.020Z,19.72
2022-08-25T05:04:27.717Z,19.68
2022-08-25T05:06:56.309Z,19.66
2022-08-25T05:09:25.198Z,19.61
2022-08-25T05:11:54.811Z,19.78
2022-08-25T05:14:26.553Z,19.77
2022-08-25T05:16:54.971Z,19.69
2022-08-25T05:19:23.821Z,19.75
2022-08-25T05:21:51.567Z,19.82
2022-08-25T05:24:19.793Z,19.80
2022-08-25T05:26:47.421Z,19.95
2022-08-25T05:29:16.588Z,19.98
2022-08-25T05:31:50.084Z,20.03
2022-08-25T05:34:19.430Z,20.10
2022-08-25T05:36:47.267Z,20.09
2022-08-25T05:39:15.012Z,20.16
2022-08-25T05:41:42.793Z,20.18
2022-08-25T05:44:12.447Z,20.24
2022-08-25T05:46:41.519Z,20.26
2022-08-25T05:49:10.108Z,20.23
2022-08-25T05:51:37.818Z,20.24
2022-08-25T05:54:05.966Z,20.36
2022-08-25T05:56:33.616Z,20.50
2022-08-25T05:59:04.041Z,20.45
2022-08-25T06:01:50.651Z,20.44
2022-08-25T06:04:20.385Z,20.50
2022-08-25T06:06:48.882Z,20.56
2022-08-25T06:09:16.613Z,20.69
2022-08-25T06:11:44.869Z,20.78
2022-08-25T06:14:12.557Z,20.69
2022-08-25T06:16:40.560Z,20.72
2022-08-25T06:19:09.689Z,20.73
2022-08-25T06:21:39.423Z,20.79
2022-08-25T06:24:09.969Z,20.87
2022-08-25T06:26:39.804Z,20.85
2022-08-25T06:29:08.021Z,20.99
2022-08-25T06:31:35.751Z,20.88
2022-08-25T06:34:03.577Z,21.10
2022-08-25T06:36:31.326Z,21.20
2022-08-25T06:39:00.458Z,21.22
2022-08-25T06:41:36.548Z,21.35
2022-08-25T06:44:05.918Z,21.24
2022-08-25T06:46:36.278Z,21.55
2022-08-25T06:49:05.624Z,21.53
2022-08-25T06:51:34.987Z,21.72
2022-08-25T06:54:05.050Z,21.74
2022-08-25T06:56:32.976Z,21.80
2022-08-25T06:59:02.063Z,21.93
2022-08-25T07:01:32.165Z,21.88
2022-08-25T07:04:02.772Z,22.02
2022-08-25T07:06:32.666Z,22.04
2022-08-25T07:09:00.881Z,22.10
2022-08-25T07:11:34.137Z,22.24
2022-08-25T07:14:02.886Z,22.31
2022-08-25T07:16:31.531Z,22.31
2022-08-25T07:19:00.167Z,22.49
2022-08-25T07:21:33.668Z,22.69
2022-08-25T07:24:06.551Z,22.73
2022-08-25T07:26:38.178Z,22.72
2022-08-25T07:29:09.554Z,22.83
2022-08-25T07:31:37.541Z,22.96
2022-08-25T07:34:22.840Z,22.97
2022-08-25T07:36:50.455Z,23.02
2022-08-25T07:39:18.574Z,23.18
2022-08-25T07:41:51.925Z,23.23
2022-08-25T07:44:20.637Z,23.38
2022-08-25T07:46:48.615Z,23.12
2022-08-25T07:49:18.123Z,23.16
2022-08-25T07:52:04.086Z,23.05
2022-08-25T07:54:34.773Z,23.35
2022-08-25T07:57:04.578Z,23.55
2022-08-25T07:59:39.427Z,23.61
2022-08-25T08:02:08.494Z,23.74
2022-08-25T08:04:37.294Z,23.83
2022-08-25T08:07:05.336Z,23.92
2022-08-25T08:09:39.869Z,24.01
2022-08-25T08:12:09.594Z,23.93
2022-08-25T08:14:37.292Z,24.28
2022-08-25T08:17:13.536Z,24.38
2022-08-25T08:19:44.844Z,24.38
2022-08-25T08:22:15.471Z,24.67
2022-08-25T08:24:54.102Z,24.61
2022-08-25T08:27:24.456Z,24.43
2022-08-25T08:29:52.231Z,24.55
2022-08-25T08:32:20.246Z,24.86
2022-08-25T08:34:53.037Z,25.06
2022-08-25T08:37:23.087Z,25.17
2022-08-25T08:39:52.539Z,25.19
2022-08-25T08:42:38.474Z,25.32
2022-08-25T08:45:18.149Z,25.50
2022-08-25T08:47:54.947Z,25.79
2022-08-25T08:50:33.053Z,25.80
2022-08-25T08:53:07.520Z,25.96
2022-08-25T08:55:39.784Z,25.87
2022-08-25T08:58:12.852Z,25.89
2022-08-25T09:00:52.045Z,25.81
2022-08-25T09:03:29.484Z,25.70
2022-08-25T09:06:01.848Z,25.62
2022-08-25T09:08:31.798Z,25.96
2022-08-25T09:11:04.658Z,26.03
2022-08-25T09:13:50.127Z,26.07
2022-08-25T09:16:39.138Z,26.22
2022-08-25T09:19:21.289Z,26.49
2022-08-25T09:21:57.728Z,26.61
2022-08-25T09:24:36.630Z,26.68
2022-08-25T09:27:11.689Z,26.70
2022-08-25T09:29:54.212Z,26.93
2022-08-25T09:32:24.364Z,27.10
2022-08-25T09:34:59.885Z,27.05
2022-08-25T09:37:27.797Z,27.26
2022-08-25T09:39:57.395Z,27.38
2022-08-25T09:42:48.209Z,27.34
2022-08-25T09:45:32.793Z,27.35
2022-08-25T09:48:00.640Z,27.60
2022-08-25T09:50:32.292Z,27.41
2022-08-25T09:53:17.448Z,27.64
2022-08-25T09:55:48.423Z,27.78
2022-08-25T09:58:20.059Z,27.99
2022-08-25T10:01:04.473Z,27.82
2022-08-25T10:03:36.504Z,27.93
2022-08-25T10:06:07.262Z,27.78
2022-08-25T10:08:37.684Z,27.82
2022-08-25T10:11:09.683Z,27.58
2022-08-25T10:13:41.633Z,27.28
2022-08-25T10:16:24.605Z,27.52
2022-08-25T10:19:07.823Z,27.55
2022-08-25T10:21:36.506Z,27.88
2022-08-25T10:24:06.061Z,27.70
2022-08-25T10:26:41.204Z,27.57
2022-08-25T10:29:18.721Z,27.91
2022-08-25T10:31:56.003Z,28.26
2022-08-25T10:34:33.067Z,28.23
2022-08-25T10:37:10.799Z,28.39
2022-08-25T10:39:41.720Z,28.63
2022-08-25T10:42:20.092Z,28.33
2022-08-25T10:45:32.178Z,28.42
2022-08-25T10:48:27.382Z,28.46
2022-08-25T10:50:59.551Z,28.80
2022-08-25T10:53:31.224Z,28.99
2022-08-25T10:56:08.149Z,29.01
2022-08-25T10:59:11.493Z,28.89
2022-08-25T11:01:53.692Z,28.99
2022-08-25T11:04:26.131Z,28.97
2022-08-25T11:07:00.314Z,28.53
2022-08-25T11:09:30.286Z,28.76
2022-08-25T11:12:00.146Z,28.81
2022-08-25T11:14:34.679Z,29.01
2022-08-25T11:17:06.279Z,29.13
2022-08-25T11:19:38.396Z,29.47
2022-08-25T11:22:13.251Z,29.62
2022-08-25T11:24:52.647Z,29.54
2022-08-25T11:27:24.274Z,29.82
2022-08-25T11:29:59.965Z,29.70
2022-08-25T11:32:33.270Z,29.64
2022-08-25T11:35:04.960Z,29.05
2022-08-25T11:37:33.606Z,29.78
2022-08-25T11:40:13.822Z,29.62
2022-08-25T11:42:53.166Z,30.15
2022-08-25T11:45:35.444Z,29.83
2022-08-25T11:48:15.868Z,29.74
2022-08-25T11:51:00.675Z,30.14
2022-08-25T11:53:30.686Z,30.11
2022-08-25T11:56:02.460Z,30.41
2022-08-25T11:58:34.321Z,30.34
2022-08-25T12:01:03.280Z,30.44
2022-08-25T12:03:53.106Z,30.16
2022-08-25T12:06:26.804Z,29.76
2022-08-25T12:09:20.107Z,29.76
2022-08-25T12:11:51.319Z,29.82
2022-08-25T12:14:39.940Z,30.19
2022-08-25T12:17:19.318Z,30.46
2022-08-25T12:19:53.740Z,30.08
2022-08-25T12:22:55.197Z,30.42
2022-08-25T12:25:47.070Z,30.91
2022-08-25T12:28:39.101Z,31.06
2022-08-25T12:31:13.121Z,30.66
2022-08-25T12:33:47.449Z,29.84
2022-08-25T12:36:28.042Z,29.68
2022-08-25T12:39:10.307Z,30.09
2022-08-25T12:41:54.213Z,29.99
2022-08-25T12:44:40.523Z,29.77
2022-08-25T12:47:13.780Z,29.59
2022-08-25T12:49:41.902Z,29.98
2022-08-25T12:52:13.747Z,30.42
2022-08-25T12:54:49.287Z,30.65
2022-08-25T12:57:41.057Z,30.81
2022-08-25T13:00:20.090Z,31.22
2022-08-25T13:03:13.627Z,30.94
2022-08-25T13:05:49.672Z,31.10
2022-08-25T13:08:33.989Z,31.00
2022-08-25T13:11:10.781Z,30.61
2022-08-25T13:13:44.529Z,30.96
2022-08-25T13:16:18.401Z,30.92
2022-08-25T13:18:51.439Z,31.29
2022-08-25T13:21:21.964Z,31.43
2022-08-25T13:23:51.453Z,31.29
2022-08-25T13:26:25.489Z,31.39
2022-08-25T13:28:57.914Z,31.44
2022-08-25T13:31:28.265Z,31.64
2022-08-25T13:33:59.432Z,31.70
2022-08-25T13:36:54.201Z,31.56
2022-08-25T13:39:55.114Z,31.43
2022-08-25T13:42:18.005Z,31.10
2022-08-25T13:44:52.295Z,31.32
2022-08-25T13:47:33.975Z,31.77
2022-08-25T13:50:23.423Z,31.89
2022-08-25T13:52:56.043Z,31.72
2022-08-25T13:55:27.377Z,31.90
2022-08-25T13:57:57.855Z,31.82
2022-08-25T14:00:32.700Z,31.59
2022-08-25T14:03:01.769Z,31.72
2022-08-25T14:05:38.483Z,31.64
2022-08-25T14:08:23.582Z,31.82
2022-08-25T14:11:03.891Z,31.38
2022-08-25T14:13:34.176Z,31.30
2022-08-25T14:16:10.881Z,31.56
2022-08-25T14:18:38.850Z,31.42
2022-08-25T14:21:11.312Z,31.36
2022-08-25T14:23:39.804Z,31.20
2022-08-25T14:26:07.807Z,31.45
2022-08-25T14:28:36.912Z,31.34
2022-08-25T14:31:08.358Z,31.42
2022-08-25T14:33:39.087Z,31.62
2022-08-25T14:36:08.230Z,31.76
2022-08-25T14:38:38.853Z,31.65
2022-08-25T14:43:41.085Z,31.49
2022-08-25T14:46:19.554Z,31.27
2022-08-25T14:48:50.209Z,31.39
2022-08-25T14:51:18.049Z,31.34
2022-08-25T14:53:45.797Z,30.99
2022-08-25T14:56:14.359Z,30.82
2022-08-25T14:58:51.095Z,30.94
2022-08-25T15:01:29.464Z,31.02
2022-08-25T15:04:00.076Z,31.06
2022-08-25T15:06:28.286Z,30.75
2022-08-25T15:09:11.474Z,30.82
2022-08-25T15:11:42.243Z,30.65
2022-08-25T15:14:13.117Z,30.35
2022-08-25T15:16:43.111Z,30.45
2022-08-25T15:19:14.552Z,30.42
2022-08-25T15:21:44.222Z,30.60
2022-08-25T15:24:13.250Z,30.85
2022-08-25T15:29:17.850Z,30.84
2022-08-25T15:31:45.888Z,30.64
2022-08-25T15:34:14.471Z,30.71
2022-08-25T15:36:42.729Z,31.05
2022-08-25T15:39:10.909Z,30.99
2022-08-25T15:41:38.666Z,31.00
2022-08-25T15:44:07.781Z,30.97
2022-08-25T15:46:38.061Z,30.94
2022-08-25T15:49:07.905Z,30.86
2022-08-25T15:51:35.821Z,30.75
2022-08-25T15:54:04.301Z,30.90
2022-08-25T15:56:32.157Z,31.01
2022-08-25T15:58:59.860Z,31.20
2022-08-25T16:01:30.580Z,31.04
2022-08-25T16:03:59.920Z,30.97
2022-08-25T16:06:27.942Z,31.02
2022-08-25T16:08:58.871Z,30.85
2022-08-25T16:11:28.084Z,31.13
2022-08-25T16:13:58.537Z,30.87
2022-08-25T16:16:28.394Z,30.92
2022-08-25T16:18:56.595Z,30.74
2022-08-25T16:21:29.121Z,30.54
2022-08-25T16:24:02.627Z,30.67
2022-08-25T16:26:33.959Z,30.47
2022-08-25T16:29:01.795Z,30.57
2022-08-25T16:31:34.304Z,30.43
2022-08-25T16:34:02.328Z,30.34
2022-08-25T16:36:31.396Z,30.40
2022-08-25T16:39:00.932Z,30.33
2022-08-25T16:41:34.169Z,30.42
2022-08-25T16:44:03.802Z,30.39
2022-08-25T16:46:31.982Z,30.35
2022-08-25T16:49:01.322Z,30.12
2022-08-25T16:51:32.588Z,30.02
2022-08-25T16:54:22.207Z,30.05
2022-08-25T16:56:54.681Z,30.08
2022-08-25T16:59:23.444Z,30.11
2022-08-25T17:01:52.521Z,29.98
2022-08-25T17:04:20.909Z,30.04
2022-08-25T17:07:01.900Z,29.95
2022-08-25T17:09:30.146Z,29.90
2022-08-25T17:11:58.087Z,29.81
2022-08-25T17:14:26.647Z,29.72
2022-08-25T17:16:55.417Z,29.68
2022-08-25T17:19:25.041Z,29.55
2022-08-25T17:21:54.440Z,29.44
2022-08-25T17:24:29.320Z,29.65
2022-08-25T17:26:59.940Z,29.53
2022-08-25T17:29:29.236Z,29.50
2022-08-25T17:31:57.529Z,29.36
2022-08-25T17:34:25.917Z,29.10
2022-08-25T17:36:55.752Z,29.11
2022-08-25T17:39:25.766Z,29.08
2022-08-25T17:41:54.584Z,29.09
2022-08-25T17:44:22.453Z,29.06
2022-08-25T17:46:50.729Z,28.97
2022-08-25T17:49:19.556Z,28.83
2022-08-25T17:51:47.243Z,28.81
2022-08-25T17:54:15.200Z,28.78
2022-08-25T17:56:45.146Z,28.78
2022-08-25T17:59:13.696Z,28.72
2022-08-25T18:01:42.151Z,28.61
2022-08-25T18:04:17.398Z,28.33
2022-08-25T18:06:46.418Z,28.19
2022-08-25T18:09:14.374Z,28.13
2022-08-25T18:11:42.348Z,28.10
2022-08-25T18:14:12.601Z,27.92
2022-08-25T18:16:40.818Z,27.89
2022-08-25T18:19:10.690Z,27.77
2022-08-25T18:21:38.733Z,27.80
2022-08-25T18:24:07.074Z,27.75
2022-08-25T18:26:36.120Z,27.59
2022-08-25T18:29:04.470Z,27.37
2022-08-25T18:31:33.763Z,27.27
2022-08-25T18:34:02.124Z,27.07
2022-08-25T18:36:29.863Z,27.05
2022-08-25T18:39:15.292Z,26.91
2022-08-25T18:41:44.970Z,26.85
2022-08-25T18:44:15.711Z,26.75
2022-08-25T18:46:45.392Z,26.74
2022-08-25T18:49:15.577Z,26.60
2022-08-25T18:51:44.592Z,26.38
2022-08-25T18:54:22.985Z,26.48
2022-08-25T18:56:51.897Z,26.59
2022-08-25T18:59:20.377Z,26.39
2022-08-25T19:01:53.818Z,26.53
2022-08-25T19:04:28.397Z,26.62
2022-08-25T19:06:59.389Z,26.53
2022-08-25T19:09:27.082Z,26.50
2022-08-25T19:11:56.160Z,26.45
2022-08-25T19:14:23.912Z,26.68
2022-08-25T19:16:57.788Z,26.58
2022-08-25T19:19:25.510Z,26.62
2022-08-25T19:21:53.195Z,26.56
2022-08-25T19:24:21.485Z,26.49
2022-08-25T19:26:54.158Z,26.48
2022-08-25T19:29:22.458Z,26.48
2022-08-25T19:31:51.122Z,26.50
2022-08-25T19:34:23.339Z,26.36
2022-08-25T19:36:51.319Z,26.28
2022-08-25T19:39:19.603Z,26.20
2022-08-25T19:41:47.353Z,26.10
2022-08-25T19:44:16.279Z,26.00
2022-08-25T19:46:45.187Z,25.97
2022-08-25T19:49:15.718Z,25.94
2022-08-25T19:51:50.520Z,25.85
2022-08-25T19:54:21.984Z,25.77
2022-08-25T19:56:54.911Z,25.74
2022-08-25T19:59:25.317Z,25.74
2022-08-25T20:01:53.723Z,25.69
2022-08-25T20:04:24.636Z,25.81
2022-08-25T20:06:55.516Z,25.77
2022-08-25T20:09:38.967Z,25.78
2022-08-25T20:12:09.897Z,25.56
2022-08-25T20:14:37.728Z,25.50
2022-08-25T20:17:14.657Z,25.59
2022-08-25T20:19:51.979Z,25.57
2022-08-25T20:22:25.406Z,25.53
2022-08-25T20:24:57.377Z,25.44
2022-08-25T20:27:29.014Z,25.48
2022-08-25T20:29:56.807Z,25.42
2022-08-25T20:32:24.715Z,25.38
2022-08-25T20:34:55.607Z,25.33
2022-08-25T20:37:25.676Z,25.23
2022-08-25T20:39:53.603Z,25.18
2022-08-25T20:42:21.336Z,25.13
2022-08-25T20:44:49.014Z,25.10
2022-08-25T20:47:20.443Z,25.06
2022-08-25T20:49:49.351Z,25.05
2022-08-25T20:52:18.894Z,25.25
2022-08-25T20:54:49.606Z,25.19
2022-08-25T20:57:18.761Z,25.13
2022-08-25T20:59:53.394Z,25.04
2022-08-25T21:02:21.120Z,25.07
2022-08-25T21:04:50.214Z,25.11
2022-08-25T21:07:18.498Z,25.10
2022-08-25T21:09:48.077Z,25.08
2022-08-25T21:12:15.840Z,25.06
2022-08-25T21:14:44.153Z,24.91
2022-08-25T21:17:12.870Z,25.01
2022-08-25T21:19:41.730Z,25.01
2022-08-25T21:22:10.712Z,25.01
2022-08-25T21:24:39.259Z,24.98
2022-08-25T21:27:08.434Z,24.97
2022-08-25T21:29:36.443Z,24.92
2022-08-25T21:32:04.594Z,24.94
2022-08-25T21:34:32.387Z,24.79
2022-08-25T21:37:00.395Z,24.86
2022-08-25T21:39:32.057Z,24.87
2022-08-25T21:42:00.672Z,24.83
2022-08-25T21:44:30.902Z,24.78
2022-08-25T21:46:58.683Z,24.85
2022-08-25T21:49:26.401Z,24.81
2022-08-25T21:52:03.381Z,24.80
2022-08-25T21:54:32.451Z,24.71
2022-08-25T21:57:03.024Z,24.70
2022-08-25T21:59:34.067Z,24.60
2022-08-25T22:02:04.258Z,24.61
2022-08-25T22:04:32.777Z,24.58
2022-08-25T22:07:01.225Z,24.53
2022-08-25T22:09:30.471Z,24.48
2022-08-25T22:11:59.239Z,24.49
2022-08-25T22:14:27.637Z,24.47
2022-08-25T22:16:57.493Z,24.39
2022-08-25T22:19:25.514Z,24.33
2022-08-25T22:21:56.384Z,24.37
2022-08-25T22:24:28.120Z,24.28
2022-08-25T22:26:56.398Z,24.28
2022-08-25T22:29:25.268Z,24.19
2022-08-25T22:31:53.982Z,24.19
2022-08-25T22:34:31.781Z,24.21
2022-08-25T22:37:00.232Z,24.19
2022-08-25T22:39:28.465Z,24.22
2022-08-25T22:41:56.279Z,24.28
2022-08-25T22:44:24.995Z,24.24
2022-08-25T22:46:53.269Z,24.05
2022-08-25T22:49:21.855Z,24.23
2022-08-25T22:51:51.389Z,24.11
2022-08-25T22:54:22.901Z,23.89
2022-08-25T22:56:51.728Z,23.73
2022-08-25T22:59:19.470Z,23.59
2022-08-25T23:01:49.829Z,23.54
2022-08-25T23:04:19.168Z,23.51
2022-08-25T23:06:47.610Z,23.44
2022-08-25T23:09:16.941Z,23.42
2022-08-25T23:11:44.698Z,23.12
2022-08-25T23:14:13.107Z,23.17
2022-08-25T23:16:42.496Z,23.10
2022-08-25T23:19:11.154Z,22.95
2022-08-25T23:21:59.366Z,22.87
2022-08-25T23:24:30.273Z,22.84
2022-08-25T23:26:59.174Z,22.83
2022-08-25T23:29:27.486Z,22.73
2022-08-25T23:31:55.388Z,22.62
2022-08-25T23:34:24.008Z,22.51
2022-08-25T23:36:52.005Z,22.51
2022-08-25T23:39:21.882Z,22.47
2022-08-25T23:41:51.389Z,22.47
2022-08-25T23:44:19.443Z,22.31
2022-08-25T23:46:47.817Z,22.14
2022-08-25T23:49:18.705Z,22.15
2022-08-25T23:51:47.717Z,22.11
2022-08-25T23:54:16.446Z,22.23
2022-08-25T23:56:51.636Z,22.27
2022-08-25T23:59:23.970Z,22.24
